Time;durP1;ratioP1;P1;durP2;ratioP2;P2;SDS_P1;SDS_P2;PMS_P1;PMS_P2;Temp;Humidity;BMP_temperature;BMP_pressure;BME280_temperature;BME280_humidity;BME280_pressure;Samples;Min_cycle;Max_cycle;Signal;HPM_P1;HPM_P2
2022/07/02 00:02:02;;;;;;;0.00;0.00;;;;;;;;;;5076598;28;20394;-91
2022/07/02 00:04:32;;;;;;;0.00;0.00;;;;;;;;;;5076008;28;20040;-91
2022/07/02 00:07:01;;;;;;;0.00;0.00;;;;;;;;;;5076111;28;20050;-91
2022/07/02 00:09:27;;;;;;;0.00;0.00;;;;;;;;;;5076090;28;20044;-92
2022/07/02 00:11:57;;;;;;;0.00;0.00;;;;;;;;;;5076123;28;20072;-90
2022/07/02 00:14:24;;;;;;;0.00;0.00;;;;;;;;;;5075750;28;20161;-91
2022/07/02 00:16:53;;;;;;;0.00;0.00;;;;;;;;;;5076084;28;20046;-91
2022/07/02 00:19:22;;;;;;;0.00;0.00;;;;;;;;;;5075882;28;20361;-91
2022/07/02 00:21:48;;;;;;;0.00;0.00;;;;;;;;;;5076176;28;20043;-91
2022/07/02 00:24:14;;;;;;;0.00;0.00;;;;;;;;;;5075912;28;20105;-92
2022/07/02 00:26:41;;;;;;;0.00;0.00;;;;;;;;;;5075914;28;20044;-89
2022/07/02 00:29:30;;;;;;;0.00;0.00;;;;;;;;;;5075433;28;20032;-91
2022/07/02 00:31:57;;;;;;;0.00;0.00;;;;;;;;;;5075698;28;20043;-92
2022/07/02 00:34:24;;;;;;;0.00;0.00;;;;;;;;;;5075402;28;20047;-91
2022/07/02 00:36:50;;;;;;;0.00;0.00;;;;;;;;;;5092829;28;20253;-91
2022/07/02 00:39:16;;;;;;;0.00;0.00;;;;;;;;;;5076065;28;20040;-89
2022/07/02 00:41:45;;;;;;;0.00;0.00;;;;;;;;;;5076039;28;20040;-91
2022/07/02 00:44:12;;;;;;;0.00;0.00;;;;;;;;;;5075927;28;20399;-91
2022/07/02 00:46:41;;;;;;;0.00;0.00;;;;;;;;;;5079647;28;20036;-92
2022/07/02 00:49:08;;;;;;;0.00;0.00;;;;;;;;;;5079273;28;20036;-90
2022/07/02 00:51:34;;;;;;;0.00;0.00;;;;;;;;;;5079915;28;20421;-90
2022/07/02 00:54:00;;;;;;;0.00;0.00;;;;;;;;;;5079051;28;20091;-90
2022/07/02 00:56:26;;;;;;;0.00;0.00;;;;;;;;;;5096139;28;20172;-92
2022/07/02 00:58:52;;;;;;;0.00;0.00;;;;;;;;;;5079020;28;20109;-92
2022/07/02 01:01:18;;;;;;;0.00;0.00;;;;;;;;;;5079152;28;20040;-92
2022/07/02 01:03:46;;;;;;;0.00;0.00;;;;;;;;;;5079226;28;20047;-92
2022/07/02 01:06:12;;;;;;;0.00;0.00;;;;;;;;;;5096248;28;20079;-91
2022/07/02 01:11:27;;;;;;;0.00;0.00;;;;;;;;;;5096546;28;20432;-91
2022/07/02 01:13:55;;;;;;;0.00;0.00;;;;;;;;;;5079038;28;20032;-91
2022/07/02 01:16:21;;;;;;;0.00;0.00;;;;;;;;;;5079822;28;20360;-91
2022/07/02 01:18:47;;;;;;;0.00;0.00;;;;;;;;;;5078946;28;20035;-90
2022/07/02 01:21:16;;;;;;;0.00;0.00;;;;;;;;;;5096009;28;20044;-89
2022/07/02 01:23:42;;;;;;;0.00;0.00;;;;;;;;;;5079115;28;20044;-92
2022/07/02 01:26:13;;;;;;;0.00;0.00;;;;;;;;;;5078991;28;20406;-91
2022/07/02 01:28:39;;;;;;;0.00;0.00;;;;;;;;;;5078864;28;20124;-90
2022/07/02 01:31:05;;;;;;;0.00;0.00;;;;;;;;;;5078987;28;20036;-90
2022/07/02 01:33:31;;;;;;;0.00;0.00;;;;;;;;;;5078715;28;20072;-90
2022/07/02 01:35:58;;;;;;;0.00;0.00;;;;;;;;;;5078807;28;20150;-92
2022/07/02 01:38:24;;;;;;;0.00;0.00;;;;;;;;;;5078965;28;20143;-91
2022/07/02 01:40:50;;;;;;;0.00;0.00;;;;;;;;;;5079106;28;20438;-89
2022/07/02 01:43:16;;;;;;;0.00;0.00;;;;;;;;;;5078692;28;20131;-91
2022/07/02 01:45:42;;;;;;;0.00;0.00;;;;;;;;;;5078073;28;20036;-91
2022/07/02 01:48:08;;;;;;;0.00;0.00;;;;;;;;;;5078649;28;20098;-92
2022/07/02 01:50:37;;;;;;;0.00;0.00;;;;;;;;;;5080687;28;20040;-92
2022/07/02 01:53:03;;;;;;;0.00;0.00;;;;;;;;;;5078983;28;20040;-93
2022/07/02 01:55:29;;;;;;;0.00;0.00;;;;;;;;;;5077573;28;20059;-92
2022/07/02 01:57:55;;;;;;;0.00;0.00;;;;;;;;;;5079436;28;20036;-92
2022/07/02 02:00:21;;;;;;;0.00;0.00;;;;;;;;;;5077883;28;20180;-90
2022/07/02 02:02:47;;;;;;;0.00;0.00;;;;;;;;;;5078032;28;20068;-89
2022/07/02 02:05:14;;;;;;;0.00;0.00;;;;;;;;;;5077640;28;20062;-90
2022/07/02 02:07:40;;;;;;;0.00;0.00;;;;;;;;;;5078431;28;20417;-89
2022/07/02 02:10:06;;;;;;;0.00;0.00;;;;;;;;;;5077803;28;20132;-90
2022/07/02 02:12:32;;;;;;;0.00;0.00;;;;;;;;;;5078005;28;20039;-90
2022/07/02 02:14:58;;;;;;;0.00;0.00;;;;;;;;;;5094230;28;20127;-89
2022/07/02 02:17:27;;;;;;;0.00;0.00;;;;;;;;;;5094474;28;20054;-93
2022/07/02 02:19:53;;;;;;;0.00;0.00;;;;;;;;;;5078188;28;20052;-91
2022/07/02 02:22:20;;;;;;;0.00;0.00;;;;;;;;;;5078011;28;20043;-92
2022/07/02 02:24:46;;;;;;;0.00;0.00;;;;;;;;;;5077487;28;20050;-90
2022/07/02 02:27:12;;;;;;;0.00;0.00;;;;;;;;;;5077470;28;20044;-92
2022/07/02 02:29:38;;;;;;;0.00;0.00;;;;;;;;;;5077555;28;20051;-92
2022/07/02 02:32:05;;;;;;;0.00;0.00;;;;;;;;;;5078371;28;20089;-92
2022/07/02 02:34:31;;;;;;;0.00;0.00;;;;;;;;;;5077348;28;20156;-90
2022/07/02 02:36:57;;;;;;;0.00;0.00;;;;;;;;;;5080181;28;20116;-92
2022/07/02 02:39:23;;;;;;;0.00;0.00;;;;;;;;;;5063276;28;20115;-92
2022/07/02 02:41:49;;;;;;;0.00;0.00;;;;;;;;;;5063072;28;20063;-91
2022/07/02 02:44:15;;;;;;;0.00;0.00;;;;;;;;;;5077559;28;20051;-92
2022/07/02 02:46:42;;;;;;;0.00;0.00;;;;;;;;;;5077532;28;20044;-92
2022/07/02 02:49:08;;;;;;;0.00;0.00;;;;;;;;;;5061352;28;20062;-91
2022/07/02 02:51:34;;;;;;;0.00;0.00;;;;;;;;;;5076983;28;20040;-92
2022/07/02 02:54:00;;;;;;;0.00;0.00;;;;;;;;;;5060514;28;20226;-90
2022/07/02 02:56:26;;;;;;;0.00;0.00;;;;;;;;;;5076702;28;20403;-88
2022/07/02 02:58:52;;;;;;;0.00;0.00;;;;;;;;;;5076383;28;20044;-88
2022/07/02 03:01:18;;;;;;;0.00;0.00;;;;;;;;;;5076493;28;20051;-88
2022/07/02 03:03:44;;;;;;;0.00;0.00;;;;;;;;;;5076122;28;20054;-89
2022/07/02 03:06:10;;;;;;;0.00;0.00;;;;;;;;;;5076171;28;20560;-89
2022/07/02 03:08:36;;;;;;;0.00;0.00;;;;;;;;;;5076120;28;20036;-89
2022/07/02 03:11:02;;;;;;;0.00;0.00;;;;;;;;;;5075968;28;20479;-88
2022/07/02 03:13:28;;;;;;;0.00;0.00;;;;;;;;;;5075986;28;20035;-88
2022/07/02 03:15:54;;;;;;;0.00;0.00;;;;;;;;;;5092639;28;20470;-89
2022/07/02 03:18:20;;;;;;;0.00;0.00;;;;;;;;;;5076077;28;20044;-89
2022/07/02 03:20:46;;;;;;;0.00;0.00;;;;;;;;;;5092879;28;20471;-88
2022/07/02 03:23:12;;;;;;;0.00;0.00;;;;;;;;;;5076336;28;20036;-89
2022/07/02 03:25:38;;;;;;;0.00;0.00;;;;;;;;;;5075770;28;20036;-88
2022/07/02 03:28:04;;;;;;;0.00;0.00;;;;;;;;;;5076187;28;20040;-88
2022/07/02 03:30:30;;;;;;;0.00;0.00;;;;;;;;;;5092533;28;20036;-88
2022/07/02 03:32:56;;;;;;;0.00;0.00;;;;;;;;;;5076057;28;20028;-89
2022/07/02 03:35:22;;;;;;;0.00;0.00;;;;;;;;;;5075684;28;20035;-88
2022/07/02 03:37:48;;;;;;;0.00;0.00;;;;;;;;;;5075471;28;20036;-89
2022/07/02 03:40:14;;;;;;;0.00;0.00;;;;;;;;;;5092544;28;20051;-87
2022/07/02 03:42:40;;;;;;;0.00;0.00;;;;;;;;;;5075960;28;20032;-87
2022/07/02 03:45:07;;;;;;;0.00;0.00;;;;;;;;;;5075433;28;20063;-88
2022/07/02 03:47:33;;;;;;;0.00;0.00;;;;;;;;;;5075262;28;20044;-88
2022/07/02 03:49:59;;;;;;;0.00;0.00;;;;;;;;;;5075190;28;20040;-88
2022/07/02 03:52:24;;;;;;;0.00;0.00;;;;;;;;;;5075279;28;20042;-88
2022/07/02 03:54:50;;;;;;;0.00;0.00;;;;;;;;;;5075083;28;20059;-88
2022/07/02 03:57:16;;;;;;;0.00;0.00;;;;;;;;;;5091868;28;20040;-89
2022/07/02 03:59:42;;;;;;;0.00;0.00;;;;;;;;;;5076036;28;20399;-89
2022/07/02 04:02:08;;;;;;;0.00;0.00;;;;;;;;;;5075425;28;20105;-89
2022/07/02 04:04:34;;;;;;;0.00;0.00;;;;;;;;;;5092498;28;20129;-89
2022/07/02 04:07:00;;;;;;;0.00;0.00;;;;;;;;;;5074931;28;20092;-88
2022/07/02 04:09:26;;;;;;;0.00;0.00;;;;;;;;;;5075482;28;20104;-90
2022/07/02 04:11:52;;;;;;;0.00;0.00;;;;;;;;;;5075310;28;20032;-88
2022/07/02 04:14:18;;;;;;;0.00;0.00;;;;;;;;;;5091920;28;20039;-88
2022/07/02 04:16:44;;;;;;;0.00;0.00;;;;;;;;;;5074997;28;20048;-88
2022/07/02 04:19:10;;;;;;;0.00;0.00;;;;;;;;;;5074254;28;20067;-87
2022/07/02 04:21:36;;;;;;;0.00;0.00;;;;;;;;;;5074576;28;20036;-87
2022/07/02 04:24:02;;;;;;;0.17;0.03;;;;;;;;;;5074919;28;20116;-89
2022/07/02 04:26:28;;;;;;;0.00;0.00;;;;;;;;;;5091567;28;20083;-89
2022/07/02 04:28:54;;;;;;;0.00;0.00;;;;;;;;;;5075080;28;20079;-89
2022/07/02 04:31:20;;;;;;;0.00;0.00;;;;;;;;;;5091803;28;20036;-88
2022/07/02 04:33:46;;;;;;;0.00;0.00;;;;;;;;;;5091676;28;20518;-88
2022/07/02 04:36:12;;;;;;;0.17;0.17;;;;;;;;;;5074974;28;20044;-86
2022/07/02 04:38:38;;;;;;;0.00;0.00;;;;;;;;;;5074764;28;20440;-88
2022/07/02 04:41:04;;;;;;;0.00;0.00;;;;;;;;;;5074476;28;20081;-87
2022/07/02 04:43:30;;;;;;;0.00;0.00;;;;;;;;;;5074619;28;20093;-87
2022/07/02 04:45:56;;;;;;;0.00;0.00;;;;;;;;;;5074430;28;20407;-88
2022/07/02 04:48:22;;;;;;;0.00;0.00;;;;;;;;;;5074980;28;20039;-88
2022/07/02 04:50:48;;;;;;;0.00;0.00;;;;;;;;;;5075295;28;20040;-88
2022/07/02 04:53:14;;;;;;;0.20;0.03;;;;;;;;;;5074586;28;20071;-88
2022/07/02 04:55:40;;;;;;;0.00;0.00;;;;;;;;;;5091508;28;20095;-88
2022/07/02 04:58:06;;;;;;;0.00;0.00;;;;;;;;;;5075060;28;20036;-88
2022/07/02 05:00:32;;;;;;;0.00;0.00;;;;;;;;;;5091649;28;20044;-88
2022/07/02 05:02:58;;;;;;;0.00;0.00;;;;;;;;;;5074775;28;20430;-89
2022/07/02 05:05:25;;;;;;;0.00;0.00;;;;;;;;;;5074478;28;20040;-88
2022/07/02 05:07:51;;;;;;;0.00;0.00;;;;;;;;;;5074472;28;20501;-87
2022/07/02 05:10:17;;;;;;;0.00;0.00;;;;;;;;;;5091442;28;20071;-87
2022/07/02 05:12:43;;;;;;;0.00;0.00;;;;;;;;;;5074181;28;20038;-87
2022/07/02 05:15:09;;;;;;;0.00;0.00;;;;;;;;;;5074603;28;20035;-88
2022/07/02 05:17:35;;;;;;;0.00;0.00;;;;;;;;;;5091231;28;20479;-88
2022/07/02 05:20:01;;;;;;;0.00;0.00;;;;;;;;;;5091356;28;20076;-88
2022/07/02 05:22:27;;;;;;;0.00;0.00;;;;;;;;;;5074095;28;20055;-89
2022/07/02 05:24:53;;;;;;;0.00;0.00;;;;;;;;;;5091479;28;20044;-89
2022/07/02 05:27:19;;;;;;;0.00;0.00;;;;;;;;;;5073942;28;20050;-87
2022/07/02 05:29:45;;;;;;;0.00;0.00;;;;;;;;;;5074577;28;20040;-88
2022/07/02 05:32:11;;;;;;;0.00;0.00;;;;;;;;;;5093187;28;20036;-87
2022/07/02 05:34:37;;;;;;;0.00;0.00;;;;;;;;;;5094619;28;20040;-88
2022/07/02 05:37:03;;;;;;;0.00;0.00;;;;;;;;;;5077688;28;20040;-88
2022/07/02 05:39:29;;;;;;;0.00;0.00;;;;;;;;;;5077629;28;20043;-88
2022/07/02 05:41:55;;;;;;;0.00;0.00;;;;;;;;;;5077737;28;20139;-88
2022/07/02 05:44:21;;;;;;;0.00;0.00;;;;;;;;;;5077803;28;20040;-88
2022/07/02 05:46:47;;;;;;;0.00;0.00;;;;;;;;;;5094166;28;20036;-88
2022/07/02 05:49:13;;;;;;;0.00;0.00;;;;;;;;;;5077755;28;20043;-89
2022/07/02 05:51:39;;;;;;;0.00;0.00;;;;;;;;;;5077250;28;20047;-88
2022/07/02 05:54:05;;;;;;;0.00;0.00;;;;;;;;;;5077295;28;20044;-90
2022/07/02 05:56:31;;;;;;;0.00;0.00;;;;;;;;;;5094403;28;20071;-87
2022/07/02 05:59:01;;;;;;;0.00;0.00;;;;;;;;;;5094759;28;20108;-87
2022/07/02 06:01:27;;;;;;;0.00;0.00;;;;;;;;;;5094171;28;20052;-89
2022/07/02 06:03:53;;;;;;;0.00;0.00;;;;;;;;;;5094385;28;20172;-89
2022/07/02 06:09:04;;;;;;;0.00;0.00;;;;;;;;;;5094221;28;20040;-87
2022/07/02 06:11:30;;;;;;;0.00;0.00;;;;;;;;;;5077079;28;20043;-89
2022/07/02 06:13:56;;;;;;;0.00;0.00;;;;;;;;;;5077265;28;20044;-88
2022/07/02 06:16:22;;;;;;;0.00;0.00;;;;;;;;;;5076902;28;20570;-89
2022/07/02 06:18:48;;;;;;;0.00;0.00;;;;;;;;;;5077032;28;20071;-89
2022/07/02 06:21:14;;;;;;;0.00;0.00;;;;;;;;;;5094015;28;20058;-90
2022/07/02 06:28:52;;;;;;;0.00;0.00;;;;;;;;;;5336070;22;20049;-91
2022/07/02 06:31:18;;;;;;;0.00;0.00;;;;;;;;;;5019121;28;20049;-90
2022/07/02 06:33:44;;;;;;;0.00;0.00;;;;;;;;;;5033801;28;20053;-92
2022/07/02 06:36:14;;;;;;;0.00;0.00;;;;;;;;;;5034003;28;20130;-92
2022/07/02 06:38:41;;;;;;;0.00;0.00;;;;;;;;;;5017359;28;20033;-90
2022/07/02 06:43:52;;;;;;;0.00;0.00;;;;;;;;;;5033203;28;20428;-90
2022/07/02 06:46:18;;;;;;;0.00;0.00;;;;;;;;;;5033606;28;20045;-91
2022/07/02 06:48:46;;;;;;;0.00;0.00;;;;;;;;;;5033761;28;20457;-90
2022/07/02 06:51:12;;;;;;;0.00;0.00;;;;;;;;;;5017204;28;20197;-89
2022/07/02 06:53:38;;;;;;;0.00;0.00;;;;;;;;;;5033584;28;20213;-92
2022/07/02 06:56:04;;;;;;;0.00;0.00;;;;;;;;;;5033823;28;20124;-92
2022/07/02 06:58:30;;;;;;;0.00;0.00;;;;;;;;;;5017104;28;20049;-92
2022/07/02 07:00:56;;;;;;;0.00;0.00;;;;;;;;;;5017035;28;20037;-91
2022/07/02 07:03:22;;;;;;;0.00;0.00;;;;;;;;;;5033197;28;20048;-90
2022/07/02 07:05:48;;;;;;;0.00;0.00;;;;;;;;;;5033228;28;20120;-91
2022/07/02 07:08:14;;;;;;;0.03;0.03;;;;;;;;;;5016398;28;20120;-92
2022/07/02 07:10:40;;;;;;;0.00;0.00;;;;;;;;;;5033491;28;20048;-89
2022/07/02 07:13:06;;;;;;;0.00;0.00;;;;;;;;;;5033220;28;20124;-90
2022/07/02 07:15:32;;;;;;;0.10;0.10;;;;;;;;;;5033551;28;20040;-91
2022/07/02 07:17:58;;;;;;;0.00;0.00;;;;;;;;;;5033175;28;20045;-89
2022/07/02 07:20:29;;;;;;;0.00;0.00;;;;;;;;;;5033254;28;20038;-90
2022/07/02 07:22:55;;;;;;;0.00;0.00;;;;;;;;;;5033034;28;20053;-92
2022/07/02 07:25:21;;;;;;;0.00;0.00;;;;;;;;;;5016760;28;20358;-91
2022/07/02 07:27:48;;;;;;;0.00;0.00;;;;;;;;;;5016003;28;20046;-91
2022/07/02 07:30:17;;;;;;;0.00;0.00;;;;;;;;;;5040079;28;20072;-93
2022/07/02 07:32:56;;;;;;;0.00;0.00;;;;;;;;;;5043759;28;20447;-93
2022/07/02 07:35:34;;;;;;;0.00;0.00;;;;;;;;;;5057455;22;20046;-91
2022/07/02 08:06:44;;;;;;;0.00;0.00;;;;;;;;;;5170453;23;20047;-93
2022/07/02 08:09:10;;;;;;;0.00;0.00;;;;;;;;;;4952863;28;20043;-93
2022/07/02 08:11:36;;;;;;;0.00;0.00;;;;;;;;;;4969071;28;20035;-92
2022/07/02 08:14:02;;;;;;;0.00;0.00;;;;;;;;;;4943543;29;20035;-93
2022/07/02 08:16:28;;;;;;;0.00;0.00;;;;;;;;;;4940733;29;20105;-93
2022/07/02 08:18:54;;;;;;;0.00;0.00;;;;;;;;;;4933303;29;20039;-90
2022/07/02 08:21:20;;;;;;;0.00;0.00;;;;;;;;;;4932900;29;20047;-93
2022/07/02 08:23:48;;;;;;;0.00;0.00;;;;;;;;;;4937930;28;20545;-92
2022/07/02 08:26:53;;;;;;;;;;;;;;;;;;;;;
2022/07/02 08:29:52;;;;;;;0.00;0.00;;;;;;;;;;4908420;29;20071;-93
2022/07/02 08:32:18;;;;;;;0.00;0.00;;;;;;;;;;4906986;29;20044;-94
2022/07/02 08:34:44;;;;;;;0.00;0.00;;;;;;;;;;4866125;29;20056;-90
2022/07/02 08:37:10;;;;;;;0.00;0.00;;;;;;;;;;4866030;29;20495;-89
2022/07/02 08:39:36;;;;;;;0.00;0.00;;;;;;;;;;4896867;29;20043;-94
2022/07/02 08:42:05;;;;;;;0.00;0.00;;;;;;;;;;4897996;29;20124;-94
2022/07/02 08:44:32;;;;;;;0.00;0.00;;;;;;;;;;4896409;29;20040;-92
2022/07/02 08:46:59;;;;;;;0.00;0.00;;;;;;;;;;4897363;29;20053;-92
2022/07/02 08:49:27;;;;;;;0.00;0.00;;;;;;;;;;4899275;29;20449;-91
2022/07/02 08:54:22;;;;;;;0.00;0.00;;;;;;;;;;4897047;29;20049;-91
2022/07/02 08:56:48;;;;;;;0.00;0.00;;;;;;;;;;4879450;29;20052;-93
2022/07/02 08:59:16;;;;;;;0.00;0.00;;;;;;;;;;4904597;29;20399;-91
2022/07/02 09:01:42;;;;;;;0.00;0.00;;;;;;;;;;4918828;29;20452;-93
2022/07/02 09:04:08;;;;;;;0.00;0.00;;;;;;;;;;4919370;29;20126;-91
2022/07/02 09:06:36;;;;;;;0.00;0.00;;;;;;;;;;4921680;29;20076;-91
2022/07/02 09:09:05;;;;;;;0.00;0.00;;;;;;;;;;4906480;29;20039;-91
2022/07/02 09:11:33;;;;;;;0.00;0.00;;;;;;;;;;4922774;29;20075;-90
2022/07/02 09:14:03;;;;;;;0.00;0.00;;;;;;;;;;4924126;29;20043;-91
2022/07/02 09:16:32;;;;;;;0.00;0.00;;;;;;;;;;4922549;29;20070;-92
2022/07/02 09:18:58;;;;;;;0.00;0.00;;;;;;;;;;4907004;29;20142;-92
2022/07/02 09:21:24;;;;;;;0.00;0.00;;;;;;;;;;4922746;29;20048;-91
2022/07/02 09:23:50;;;;;;;0.00;0.00;;;;;;;;;;4906646;29;20044;-91
2022/07/02 09:26:23;;;;;;;0.00;0.00;;;;;;;;;;4922249;29;20542;-91
2022/07/02 09:28:59;;;;;;;0.00;0.00;;;;;;;;;;4921871;29;20439;-90
2022/07/02 09:31:29;;;;;;;0.00;0.00;;;;;;;;;;4906367;29;20380;-89
2022/07/02 09:33:55;;;;;;;0.00;0.00;;;;;;;;;;4905816;29;20039;-90
2022/07/02 09:36:21;;;;;;;0.00;0.00;;;;;;;;;;4922047;29;20154;-92
2022/07/02 09:38:49;;;;;;;0.00;0.00;;;;;;;;;;4921719;29;20140;-90
2022/07/02 09:41:18;;;;;;;0.00;0.00;;;;;;;;;;4906184;29;20050;-90
2022/07/02 09:43:45;;;;;;;0.00;0.00;;;;;;;;;;4905799;29;20047;-90
2022/07/02 09:46:15;;;;;;;0.00;0.00;;;;;;;;;;4921706;29;20048;-91
2022/07/02 09:48:45;;;;;;;0.00;0.00;;;;;;;;;;4921838;29;20051;-92
2022/07/02 09:51:11;;;;;;;0.00;0.00;;;;;;;;;;4921755;29;20040;-92
2022/07/02 09:53:51;;;;;;;0.00;0.00;;;;;;;;;;4921624;29;20046;-91
2022/07/02 09:56:17;;;;;;;0.00;0.00;;;;;;;;;;4922109;29;20104;-92
2022/07/02 09:58:43;;;;;;;0.00;0.00;;;;;;;;;;4905966;29;20048;-89
2022/07/02 10:01:09;;;;;;;0.00;0.00;;;;;;;;;;4922063;29;20058;-90
2022/07/02 10:04:02;;;;;;;0.00;0.00;;;;;;;;;;4921987;29;20051;-93
2022/07/02 10:06:28;;;;;;;0.00;0.00;;;;;;;;;;4918484;29;20052;-90
2022/07/02 10:08:55;;;;;;;0.00;0.00;;;;;;;;;;4905688;29;20047;-93
2022/07/02 10:11:21;;;;;;;0.00;0.00;;;;;;;;;;4921570;29;20040;-92
2022/07/02 10:13:48;;;;;;;0.00;0.00;;;;;;;;;;4922196;29;20040;-94
2022/07/02 10:16:17;;;;;;;0.00;0.00;;;;;;;;;;4939783;28;20043;-93
2022/07/02 10:18:46;;;;;;;0.00;0.00;;;;;;;;;;4925202;29;20126;-92
2022/07/02 10:21:13;;;;;;;0.00;0.00;;;;;;;;;;4926020;29;20047;-92
2022/07/02 10:23:39;;;;;;;0.00;0.00;;;;;;;;;;4927614;29;20047;-95
2022/07/02 10:26:05;;;;;;;0.00;0.00;;;;;;;;;;4924827;29;20039;-94
2022/07/02 10:28:33;;;;;;;0.00;0.00;;;;;;;;;;4940626;29;20040;-94
2022/07/02 10:30:59;;;;;;;0.00;0.00;;;;;;;;;;4924383;29;20039;-94
2022/07/02 10:33:44;;;;;;;0.00;0.00;;;;;;;;;;4940523;29;20121;-94
2022/07/02 10:36:12;;;;;;;0.00;0.00;;;;;;;;;;4940337;29;20117;-94
2022/07/02 10:38:39;;;;;;;0.00;0.00;;;;;;;;;;4940396;29;20047;-88
2022/07/02 10:41:17;;;;;;;0.00;0.00;;;;;;;;;;4942175;29;20051;-93
2022/07/02 10:43:43;;;;;;;0.00;0.00;;;;;;;;;;4942462;29;20055;-92
2022/07/02 10:46:10;;;;;;;0.00;0.00;;;;;;;;;;4941738;29;20047;-92
2022/07/02 10:49:01;;;;;;;0.00;0.00;;;;;;;;;;4929185;29;20058;-93
2022/07/02 10:51:40;;;;;;;0.00;0.00;;;;;;;;;;4936830;29;20070;-92
2022/07/02 10:54:09;;;;;;;0.00;0.00;;;;;;;;;;4947833;29;20376;-92
2022/07/02 10:56:51;;;;;;;0.00;0.00;;;;;;;;;;4949695;29;20073;-92
2022/07/02 11:02:22;;;;;;;0.00;0.00;;;;;;;;;;4999109;26;20055;-91
2022/07/02 11:04:50;;;;;;;0.00;0.00;;;;;;;;;;4969262;28;20050;-94
2022/07/02 11:07:16;;;;;;;0.00;0.00;;;;;;;;;;4967011;28;20049;-94
2022/07/02 11:10:04;;;;;;;0.00;0.00;;;;;;;;;;5000855;28;20343;-94
2022/07/02 11:12:48;;;;;;;0.00;0.00;;;;;;;;;;5002185;28;20042;-91
2022/07/02 11:15:18;;;;;;;0.00;0.00;;;;;;;;;;5001334;28;20057;-93
2022/07/02 11:20:31;;;;;;;0.00;0.00;;;;;;;;;;4965675;29;20058;-93
2022/07/02 11:23:05;;;;;;;0.00;0.00;;;;;;;;;;4946496;29;20141;-92
2022/07/02 11:25:46;;;;;;;0.00;0.00;;;;;;;;;;4950092;29;20039;-92
2022/07/02 11:28:16;;;;;;;0.00;0.00;;;;;;;;;;4963386;28;20086;-91
2022/07/02 11:30:42;;;;;;;0.00;0.00;;;;;;;;;;4943107;29;20145;-93
2022/07/02 11:33:14;;;;;;;0.00;0.00;;;;;;;;;;4946265;29;20118;-92
2022/07/02 11:35:45;;;;;;;0.00;0.00;;;;;;;;;;4940617;29;20063;-92
2022/07/02 11:38:11;;;;;;;0.00;0.00;;;;;;;;;;4939613;29;20035;-92
2022/07/02 11:40:37;;;;;;;0.00;0.00;;;;;;;;;;4939177;29;20142;-91
2022/07/02 11:43:12;;;;;;;0.00;0.00;;;;;;;;;;4939015;28;20046;-91
2022/07/02 11:45:47;;;;;;;0.00;0.00;;;;;;;;;;4939125;29;20390;-91
2022/07/02 11:48:24;;;;;;;0.00;0.00;;;;;;;;;;4939114;29;20143;-93
2022/07/02 11:51:00;;;;;;;0.00;0.00;;;;;;;;;;4936121;29;20130;-91
2022/07/02 11:53:28;;;;;;;0.00;0.00;;;;;;;;;;4938890;28;20035;-90
2022/07/02 11:56:04;;;;;;;0.00;0.00;;;;;;;;;;4939196;29;20046;-91
2022/07/02 11:58:39;;;;;;;0.00;0.00;;;;;;;;;;4939607;29;20078;-91
2022/07/02 12:01:05;;;;;;;0.00;0.00;;;;;;;;;;4939830;29;20126;-90
2022/07/02 12:03:31;;;;;;;0.00;0.00;;;;;;;;;;4939836;28;20042;-89
2022/07/02 12:05:57;;;;;;;0.00;0.00;;;;;;;;;;4938748;28;20482;-92
2022/07/02 12:08:31;;;;;;;0.00;0.00;;;;;;;;;;4938961;29;20110;-91
2022/07/02 12:10:57;;;;;;;0.00;0.00;;;;;;;;;;4938342;29;20071;-90
2022/07/02 12:13:23;;;;;;;0.00;0.00;;;;;;;;;;4938655;29;20073;-90
2022/07/02 12:15:49;;;;;;;0.00;0.00;;;;;;;;;;4938225;29;20077;-92
2022/07/02 12:18:21;;;;;;;0.00;0.00;;;;;;;;;;4938194;29;20463;-90
2022/07/02 12:20:47;;;;;;;0.00;0.00;;;;;;;;;;4923186;29;20043;-90
2022/07/02 12:23:14;;;;;;;0.00;0.00;;;;;;;;;;4922509;29;20043;-91
2022/07/02 12:25:47;;;;;;;0.00;0.00;;;;;;;;;;4922046;29;20105;-90
2022/07/02 12:29:53;;;;;;;0.00;0.00;;;;;;;;;;4922229;29;20127;-90
2022/07/02 12:31:14;;;;;;;0.00;0.00;;;;;;;;;;4937917;29;20043;-91
2022/07/02 12:33:40;;;;;;;0.00;0.00;;;;;;;;;;4937847;28;20471;-92
2022/07/02 12:36:06;;;;;;;0.00;0.00;;;;;;;;;;4922003;29;20047;-90
2022/07/02 12:38:45;;;;;;;0.00;0.00;;;;;;;;;;4938099;29;20130;-90
2022/07/02 12:41:11;;;;;;;0.00;0.00;;;;;;;;;;4941237;29;20047;-92
2022/07/02 12:43:37;;;;;;;0.00;0.00;;;;;;;;;;4942356;28;20082;-89
2022/07/02 12:46:07;;;;;;;0.00;0.00;;;;;;;;;;4925743;29;20459;-91
2022/07/02 12:48:43;;;;;;;0.00;0.00;;;;;;;;;;4941651;29;20139;-90
2022/07/02 12:51:10;;;;;;;0.00;0.00;;;;;;;;;;4941470;29;20512;-90
2022/07/02 12:53:36;;;;;;;0.00;0.00;;;;;;;;;;4925998;28;20035;-90
2022/07/02 12:56:04;;;;;;;0.00;0.00;;;;;;;;;;4925684;29;20039;-90
2022/07/02 12:58:30;;;;;;;0.00;0.00;;;;;;;;;;4941224;29;20058;-90
2022/07/02 13:00:57;;;;;;;0.00;0.00;;;;;;;;;;4941368;29;20490;-91
2022/07/02 13:03:24;;;;;;;0.00;0.00;;;;;;;;;;4925725;29;20047;-90
2022/07/02 13:05:54;;;;;;;0.00;0.00;;;;;;;;;;4925261;29;20175;-90
2022/07/02 13:08:21;;;;;;;0.00;0.00;;;;;;;;;;4925467;29;20106;-90
2022/07/02 13:10:48;;;;;;;0.00;0.00;;;;;;;;;;4940968;29;20039;-87
2022/07/02 13:13:14;;;;;;;0.00;0.00;;;;;;;;;;4924794;29;20043;-88
2022/07/02 13:15:40;;;;;;;0.00;0.00;;;;;;;;;;4924742;29;20043;-88
2022/07/02 13:18:06;;;;;;;0.00;0.00;;;;;;;;;;4940569;29;20049;-87
2022/07/02 13:20:32;;;;;;;0.00;0.00;;;;;;;;;;4940532;29;20517;-87
2022/07/02 13:22:58;;;;;;;0.00;0.00;;;;;;;;;;4940569;29;20039;-87
2022/07/02 13:25:24;;;;;;;0.00;0.00;;;;;;;;;;4940825;29;20047;-87
2022/07/02 13:27:50;;;;;;;0.00;0.00;;;;;;;;;;4940308;29;20512;-88
2022/07/02 13:30:17;;;;;;;0.00;0.00;;;;;;;;;;4940442;29;20040;-87
2022/07/02 13:32:43;;;;;;;0.00;0.00;;;;;;;;;;4940229;29;20043;-86
2022/07/02 13:35:10;;;;;;;0.00;0.00;;;;;;;;;;4940315;29;20112;-86
2022/07/02 13:37:37;;;;;;;0.00;0.00;;;;;;;;;;4940097;29;20043;-86
2022/07/02 13:40:04;;;;;;;0.00;0.00;;;;;;;;;;4924495;29;20050;-86
2022/07/02 13:42:30;;;;;;;0.00;0.00;;;;;;;;;;4940070;29;20039;-87
2022/07/02 13:44:56;;;;;;;0.00;0.00;;;;;;;;;;4940155;29;20039;-87
2022/07/02 13:47:22;;;;;;;0.00;0.00;;;;;;;;;;4939923;29;20375;-87
2022/07/02 13:49:49;;;;;;;0.00;0.00;;;;;;;;;;4924350;29;20050;-86
2022/07/02 13:52:15;;;;;;;0.00;0.00;;;;;;;;;;4922943;29;20043;-86
2022/07/02 13:54:41;;;;;;;0.00;0.00;;;;;;;;;;4940180;29;20047;-86
2022/07/02 13:57:07;;;;;;;0.00;0.00;;;;;;;;;;4939837;29;20094;-86
2022/07/02 13:59:33;;;;;;;0.00;0.00;;;;;;;;;;4924063;29;20042;-86
2022/07/02 14:01:59;;;;;;;0.00;0.00;;;;;;;;;;4939713;29;20074;-86
2022/07/02 14:04:25;;;;;;;0.00;0.00;;;;;;;;;;4939790;29;20122;-86
2022/07/02 14:06:51;;;;;;;0.00;0.00;;;;;;;;;;4939347;29;20051;-86
2022/07/02 14:09:18;;;;;;;0.00;0.00;;;;;;;;;;4939712;29;20051;-86
2022/07/02 14:11:44;;;;;;;0.00;0.00;;;;;;;;;;4923843;29;20039;-86
2022/07/02 14:14:10;;;;;;;0.00;0.00;;;;;;;;;;4940136;29;20745;-87
2022/07/02 14:16:36;;;;;;;0.00;0.00;;;;;;;;;;4939636;29;20129;-85
2022/07/02 14:19:02;;;;;;;0.00;0.00;;;;;;;;;;4939504;29;20055;-92
2022/07/02 14:21:28;;;;;;;0.00;0.00;;;;;;;;;;4923812;29;20437;-85
2022/07/02 14:23:54;;;;;;;0.00;0.00;;;;;;;;;;4956962;28;20126;-86
2022/07/02 14:26:20;;;;;;;0.00;0.00;;;;;;;;;;4939468;29;20070;-85
2022/07/02 14:28:46;;;;;;;0.00;0.00;;;;;;;;;;4939469;29;20487;-85
2022/07/02 14:31:12;;;;;;;0.00;0.00;;;;;;;;;;4939497;29;20051;-85
2022/07/02 14:33:38;;;;;;;0.00;0.00;;;;;;;;;;4939373;28;20372;-85
2022/07/02 14:36:05;;;;;;;0.00;0.00;;;;;;;;;;4939255;29;20208;-85
2022/07/02 14:38:31;;;;;;;0.00;0.00;;;;;;;;;;4939130;29;20128;-88
2022/07/02 14:43:42;;;;;;;0.00;0.00;;;;;;;;;;4939205;28;20051;-86
2022/07/02 14:46:11;;;;;;;0.00;0.00;;;;;;;;;;4938927;29;20043;-86
2022/07/02 14:48:37;;;;;;;0.00;0.00;;;;;;;;;;4923039;29;20050;-86
2022/07/02 14:51:03;;;;;;;0.00;0.00;;;;;;;;;;4923275;29;20039;-85
2022/07/02 14:53:29;;;;;;;0.00;0.00;;;;;;;;;;4938697;28;20379;-86
2022/07/02 14:55:55;;;;;;;0.00;0.00;;;;;;;;;;4922956;29;20047;-86
2022/07/02 14:58:21;;;;;;;0.00;0.00;;;;;;;;;;4938656;29;20047;-85
2022/07/02 15:00:46;;;;;;;0.00;0.00;;;;;;;;;;4939055;29;20046;-86
2022/07/02 15:03:12;;;;;;;0.00;0.00;;;;;;;;;;4938131;29;20470;-85
2022/07/02 15:05:39;;;;;;;0.00;0.00;;;;;;;;;;4938855;29;20035;-86
2022/07/02 15:08:05;;;;;;;0.00;0.00;;;;;;;;;;4938329;29;20047;-86
2022/07/02 15:10:31;;;;;;;0.00;0.00;;;;;;;;;;4922743;29;20093;-85
2022/07/02 15:12:57;;;;;;;0.00;0.00;;;;;;;;;;4938536;29;20050;-85
2022/07/02 15:18:14;;;;;;;0.00;0.00;;;;;;;;;;4937922;29;20086;-85
2022/07/02 15:20:42;;;;;;;0.00;0.00;;;;;;;;;;4938523;29;20049;-86
2022/07/02 15:23:09;;;;;;;0.00;0.00;;;;;;;;;;4938205;29;20435;-86
2022/07/02 15:25:36;;;;;;;0.00;0.00;;;;;;;;;;4922430;29;20046;-86
2022/07/02 15:28:02;;;;;;;0.00;0.00;;;;;;;;;;4921945;29;20434;-85
2022/07/02 15:30:30;;;;;;;0.00;0.00;;;;;;;;;;4938331;29;20399;-86
2022/07/02 15:32:56;;;;;;;0.00;0.00;;;;;;;;;;4938299;29;20042;-86
2022/07/02 15:35:24;;;;;;;0.00;0.00;;;;;;;;;;4938235;29;20039;-85
2022/07/02 15:37:51;;;;;;;0.00;0.00;;;;;;;;;;4938282;29;20058;-86
2022/07/02 15:40:19;;;;;;;0.00;0.00;;;;;;;;;;4935200;29;20129;-88
2022/07/02 15:42:45;;;;;;;0.00;0.00;;;;;;;;;;4938173;29;20195;-86